createdAt,value
2023-05-11T00:01:38.083Z,25.70
2023-05-11T00:04:06.036Z,25.30
2023-05-11T00:06:33.456Z,23.50
2023-05-11T00:09:00.834Z,27.80
2023-05-11T00:11:27.994Z,27.70
2023-05-11T00:13:55.052Z,22.30
2023-05-11T00:16:22.433Z,25.50
2023-05-11T00:18:49.824Z,23.80
2023-05-11T00:21:16.853Z,24.20
2023-05-11T00:23:44.082Z,25.50
2023-05-11T00:26:11.433Z,26.70
2023-05-11T00:28:38.789Z,28.80
2023-05-11T00:31:06.168Z,25.50
2023-05-11T00:33:33.251Z,26.20
2023-05-11T00:36:00.270Z,32.30
2023-05-11T00:38:27.744Z,37.20
2023-05-11T00:40:55.540Z,37.90
2023-05-11T00:43:22.945Z,50.00
2023-05-11T00:45:50.159Z,42.80
2023-05-11T00:48:17.338Z,44.30
2023-05-11T00:50:44.901Z,56.50
2023-05-11T00:53:12.087Z,51.90
2023-05-11T00:55:39.242Z,64.40
2023-05-11T00:58:06.902Z,65.90
2023-05-11T01:00:34.256Z,63.30
2023-05-11T01:03:03.377Z,68.70
2023-05-11T01:05:46.465Z,56.20
2023-05-11T01:08:19.232Z,54.80
2023-05-11T01:10:49.900Z,57.60
2023-05-11T01:13:23.175Z,46.10
2023-05-11T01:15:54.395Z,50.20
2023-05-11T01:18:51.373Z,60.40
2023-05-11T01:21:18.497Z,47.50
2023-05-11T01:23:48.907Z,46.60
2023-05-11T01:26:22.203Z,39.20
2023-05-11T01:29:03.564Z,38.70
2023-05-11T01:31:31.781Z,46.80
2023-05-11T01:34:04.395Z,49.40
2023-05-11T01:36:35.665Z,43.10
2023-05-11T01:39:05.761Z,43.50
2023-05-11T01:41:33.221Z,38.20
2023-05-11T01:44:03.450Z,38.40
2023-05-11T01:46:33.012Z,36.10
2023-05-11T01:49:01.172Z,44.10
2023-05-11T01:51:30.848Z,41.80
2023-05-11T01:53:57.954Z,46.20
2023-05-11T01:56:24.959Z,48.60
2023-05-11T01:58:52.216Z,51.60
2023-05-11T02:01:19.855Z,45.60
2023-05-11T02:03:47.223Z,45.00
2023-05-11T02:06:16.414Z,49.50
2023-05-11T02:08:43.535Z,54.60
2023-05-11T02:11:10.702Z,53.60
2023-05-11T02:13:39.695Z,58.30
2023-05-11T02:16:07.377Z,60.40
2023-05-11T02:18:34.426Z,54.20
2023-05-11T02:21:01.613Z,74.80
2023-05-11T02:23:29.020Z,86.10
2023-05-11T02:25:56.225Z,81.50
2023-05-11T02:28:23.648Z,82.70
2023-05-11T02:30:54.250Z,67.80
2023-05-11T02:33:25.926Z,91.00
2023-05-11T02:35:54.304Z,92.50
2023-05-11T02:38:21.752Z,108.40
2023-05-11T02:40:51.062Z,106.40
2023-05-11T02:43:23.394Z,127.70
2023-05-11T02:45:54.471Z,108.10
2023-05-11T02:48:27.960Z,114.90
2023-05-11T02:50:56.570Z,115.10
2023-05-11T02:53:27.530Z,125.10
2023-05-11T02:55:57.622Z,130.10
2023-05-11T02:58:25.002Z,125.40
2023-05-11T03:00:59.546Z,132.50
2023-05-11T03:03:27.659Z,133.70
2023-05-11T03:05:54.827Z,134.20
2023-05-11T03:08:22.176Z,110.60
2023-05-11T03:10:49.262Z,106.80
2023-05-11T03:13:17.013Z,122.10
2023-05-11T03:15:44.066Z,121.20
2023-05-11T03:18:11.724Z,126.40
2023-05-11T03:20:40.208Z,127.00
2023-05-11T03:23:07.666Z,129.50
2023-05-11T03:25:34.915Z,119.00
2023-05-11T03:28:02.036Z,121.40
2023-05-11T03:30:30.216Z,122.80
2023-05-11T03:32:57.514Z,121.60
2023-05-11T03:35:26.192Z,120.20
2023-05-11T03:37:53.382Z,118.60
2023-05-11T03:40:21.029Z,116.30
2023-05-11T03:42:53.389Z,92.20
2023-05-11T03:45:21.405Z,101.60
2023-05-11T03:47:49.231Z,96.60
2023-05-11T03:50:16.359Z,103.40
2023-05-11T03:52:43.595Z,88.80
2023-05-11T03:55:11.016Z,96.10
2023-05-11T03:57:38.102Z,87.20
2023-05-11T04:00:08.376Z,83.80
2023-05-11T04:02:42.793Z,77.80
2023-05-11T04:05:12.563Z,69.50
2023-05-11T04:07:41.401Z,74.60
2023-05-11T04:10:09.618Z,67.10
2023-05-11T04:12:36.871Z,67.60
2023-05-11T04:15:04.704Z,62.60
2023-05-11T04:17:31.879Z,60.90
2023-05-11T04:19:58.842Z,63.50
2023-05-11T04:22:25.863Z,46.00
2023-05-11T04:24:53.039Z,41.40
2023-05-11T04:28:46.966Z,41.70
2023-05-11T04:31:57.908Z,28.70
2023-05-11T04:34:26.577Z,34.70
2023-05-11T04:36:54.499Z,20.00
2023-05-11T04:39:21.976Z,32.50
2023-05-11T04:41:49.019Z,27.50
2023-05-11T04:44:16.150Z,14.90
2023-05-11T04:46:43.265Z,6.80
2023-05-11T04:49:10.287Z,6.90
2023-05-11T04:51:39.587Z,7.40
2023-05-11T04:54:07.058Z,6.10
2023-05-11T04:56:34.246Z,7.20
2023-05-11T04:59:02.463Z,6.30
2023-05-11T05:01:31.014Z,5.90
2023-05-11T05:03:58.252Z,6.60
2023-05-11T05:06:25.624Z,5.70
2023-05-11T05:08:53.482Z,6.00
2023-05-11T05:11:21.761Z,6.20
2023-05-11T05:13:49.115Z,5.10
2023-05-11T05:16:16.199Z,7.70
2023-05-11T05:18:43.356Z,5.50
2023-05-11T05:21:10.941Z,7.70
2023-05-11T05:23:37.955Z,6.60
2023-05-11T05:26:05.176Z,11.00
2023-05-11T05:28:36.019Z,6.90
2023-05-11T05:31:04.043Z,8.50
2023-05-11T05:33:31.450Z,8.60
2023-05-11T05:35:58.599Z,8.30
2023-05-11T05:38:26.117Z,7.00
2023-05-11T05:40:54.014Z,4.20
2023-05-11T05:43:21.072Z,4.70
2023-05-11T05:45:48.358Z,4.40
2023-05-11T05:48:15.988Z,6.10
2023-05-11T05:50:43.545Z,8.00
2023-05-11T05:53:10.697Z,6.00
2023-05-11T05:55:38.901Z,5.00
2023-05-11T05:58:06.119Z,5.80
2023-05-11T06:00:33.202Z,7.10
2023-05-11T06:03:03.341Z,8.30
2023-05-11T06:05:30.667Z,8.40
2023-05-11T06:08:09.704Z,6.10
2023-05-11T06:10:38.896Z,6.70
2023-05-11T06:13:07.818Z,5.20
2023-05-11T06:15:35.023Z,6.70
2023-05-11T06:18:07.950Z,5.70
2023-05-11T06:20:36.304Z,6.40
2023-05-11T06:23:08.191Z,5.90
2023-05-11T06:25:37.960Z,5.90
2023-05-11T06:28:05.617Z,4.90
2023-05-11T06:30:33.124Z,5.60
2023-05-11T06:33:00.550Z,6.30
2023-05-11T06:35:30.753Z,5.30
2023-05-11T06:37:58.128Z,4.50
2023-05-11T06:40:26.196Z,5.80
2023-05-11T06:42:53.229Z,5.30
2023-05-11T06:45:20.402Z,4.20
2023-05-11T06:47:47.750Z,4.80
2023-05-11T06:50:15.089Z,6.30
2023-05-11T06:52:42.256Z,6.00
2023-05-11T06:55:14.358Z,5.30
2023-05-11T06:57:41.670Z,4.80
2023-05-11T07:00:09.467Z,8.50
2023-05-11T07:02:36.729Z,4.90
2023-05-11T07:05:04.352Z,9.60
2023-05-11T07:07:31.605Z,4.70
2023-05-11T07:09:58.746Z,4.60
2023-05-11T07:12:25.891Z,5.20
2023-05-11T07:14:53.046Z,4.60
2023-05-11T07:17:20.133Z,4.60
2023-05-11T07:19:47.574Z,8.10
2023-05-11T07:22:17.669Z,4.70
2023-05-11T07:24:44.921Z,5.70
2023-05-11T07:27:12.276Z,4.80
2023-05-11T07:29:39.322Z,4.50
2023-05-11T07:32:06.482Z,9.30
2023-05-11T07:34:33.647Z,3.90
2023-05-11T07:37:01.081Z,4.20
2023-05-11T07:39:28.236Z,4.30
2023-05-11T07:41:58.154Z,5.80
2023-05-11T07:44:28.585Z,6.60
2023-05-11T07:46:56.034Z,6.90
2023-05-11T07:49:31.376Z,3.70
2023-05-11T07:52:10.023Z,4.90
2023-05-11T07:54:37.040Z,4.30
2023-05-11T07:57:04.397Z,4.60
2023-05-11T07:59:31.704Z,4.50
2023-05-11T08:01:58.924Z,5.70
2023-05-11T08:04:27.819Z,3.70
2023-05-11T08:07:00.607Z,4.40
2023-05-11T08:09:27.854Z,6.30
2023-05-11T08:11:56.792Z,6.30
2023-05-11T08:14:25.237Z,7.10
2023-05-11T08:16:53.322Z,3.40
2023-05-11T08:19:21.732Z,4.90
2023-05-11T08:21:49.248Z,7.60
2023-05-11T08:24:16.503Z,6.40
2023-05-11T08:26:44.296Z,3.10
2023-05-11T08:29:12.722Z,3.80
2023-05-11T08:31:40.516Z,7.20
2023-05-11T08:34:28.218Z,4.70
2023-05-11T08:36:56.227Z,3.20
2023-05-11T08:39:39.008Z,3.30
2023-05-11T08:42:10.525Z,4.70
2023-05-11T08:44:38.945Z,4.30
2023-05-11T08:47:22.090Z,4.10
2023-05-11T08:49:52.720Z,3.90
2023-05-11T08:52:19.847Z,4.50
2023-05-11T08:54:47.314Z,3.60
2023-05-11T08:57:14.965Z,4.40
2023-05-11T08:59:45.285Z,3.70
2023-05-11T09:02:16.736Z,2.70
2023-05-11T09:04:46.865Z,17.70
2023-05-11T09:07:17.920Z,6.90
2023-05-11T09:09:46.689Z,3.50
2023-05-11T09:12:14.453Z,3.90
2023-05-11T09:14:41.760Z,5.90
2023-05-11T09:17:09.339Z,3.40
2023-05-11T09:19:36.683Z,5.20
2023-05-11T09:22:05.638Z,5.70
2023-05-11T09:24:32.855Z,3.40
2023-05-11T09:27:09.944Z,4.80
2023-05-11T09:29:37.159Z,4.10
2023-05-11T09:32:04.520Z,3.90
2023-05-11T09:34:31.568Z,3.90
2023-05-11T09:37:00.969Z,3.50
2023-05-11T09:39:42.039Z,3.00
2023-05-11T09:42:22.775Z,3.60
2023-05-11T09:44:49.914Z,4.00
2023-05-11T09:47:18.408Z,2.50
2023-05-11T09:49:46.998Z,3.00
2023-05-11T09:52:15.829Z,4.50
2023-05-11T09:54:46.699Z,2.60
2023-05-11T09:57:27.728Z,3.40
2023-05-11T13:49:05.653Z,3.00
2023-05-11T13:51:33.418Z,5.20
2023-05-11T13:54:02.630Z,4.50
2023-05-11T13:56:29.869Z,5.00
2023-05-11T13:58:59.768Z,4.80
2023-05-11T14:01:27.723Z,4.80
2023-05-11T14:03:55.694Z,5.10
2023-05-11T14:06:24.037Z,6.70
2023-05-11T14:08:51.801Z,3.40
2023-05-11T14:11:18.873Z,18.20
2023-05-11T14:13:45.990Z,3.10
2023-05-11T14:16:13.258Z,4.10
2023-05-11T14:18:40.990Z,2.70
2023-05-11T14:21:08.534Z,2.80
2023-05-11T14:23:37.565Z,6.60
2023-05-11T14:26:06.884Z,3.00
2023-05-11T14:28:34.187Z,3.50
2023-05-11T14:31:01.720Z,2.90
2023-05-11T14:33:28.846Z,2.30
2023-05-11T14:35:55.922Z,5.60
2023-05-11T14:38:23.113Z,11.40
2023-05-11T14:40:51.727Z,4.60
2023-05-11T14:43:19.686Z,2.70
2023-05-11T14:45:46.688Z,4.20
2023-05-11T14:48:13.791Z,2.70
2023-05-11T14:50:43.189Z,4.10
2023-05-11T14:53:10.493Z,3.20
2023-05-11T14:55:38.164Z,4.80
2023-05-11T14:58:07.935Z,3.60
2023-05-11T15:00:40.966Z,4.40
2023-05-11T15:03:08.669Z,2.70
2023-05-11T15:05:36.330Z,3.20
2023-05-11T15:08:03.387Z,6.00
2023-05-11T15:10:30.803Z,4.00
2023-05-11T15:12:57.827Z,4.00
2023-05-11T15:15:24.944Z,6.80
2023-05-11T15:17:52.034Z,5.00
2023-05-11T15:20:19.646Z,2.90
2023-05-11T15:22:46.755Z,2.50
2023-05-11T15:25:13.796Z,4.10
2023-05-11T15:27:41.860Z,3.90
2023-05-11T15:30:09.897Z,4.10
2023-05-11T15:32:37.073Z,3.00
2023-05-11T15:35:04.935Z,3.40
2023-05-11T15:37:32.094Z,7.80
2023-05-11T15:39:59.240Z,2.70
2023-05-11T15:42:26.700Z,3.50
2023-05-11T15:44:53.950Z,9.10
2023-05-11T15:47:21.039Z,5.00
2023-05-11T15:49:48.149Z,3.70
2023-05-11T15:52:15.297Z,6.80
2023-05-11T15:54:42.340Z,3.70
2023-05-11T15:57:09.654Z,4.20
2023-05-11T15:59:38.520Z,3.30
2023-05-11T16:02:06.535Z,3.10
2023-05-11T16:04:33.635Z,3.80
2023-05-11T16:07:00.638Z,3.70
2023-05-11T16:09:27.626Z,3.20
2023-05-11T16:11:56.601Z,3.70
2023-05-11T16:14:23.872Z,6.30
2023-05-11T16:16:51.985Z,6.10
2023-05-11T16:19:19.314Z,6.00
2023-05-11T16:21:46.449Z,2.40
2023-05-11T16:24:14.210Z,6.40
2023-05-11T16:26:41.269Z,4.90
2023-05-11T16:29:09.138Z,3.30
2023-05-11T16:31:36.323Z,4.50
2023-05-11T16:34:03.636Z,3.10
2023-05-11T16:36:30.791Z,3.00
2023-05-11T16:38:57.938Z,3.90
2023-05-11T16:41:28.269Z,4.80
2023-05-11T16:43:56.129Z,2.90
2023-05-11T16:47:39.001Z,16.80
2023-05-11T16:50:07.037Z,6.20
2023-05-11T16:52:34.055Z,7.20
2023-05-11T16:55:01.128Z,5.50
2023-05-11T16:57:28.272Z,3.70
2023-05-11T16:59:55.223Z,6.10
2023-05-11T17:02:22.501Z,3.90
2023-05-11T17:04:49.729Z,4.90
2023-05-11T17:07:16.992Z,4.60
2023-05-11T17:09:45.561Z,4.70
2023-05-11T17:12:12.612Z,9.30
2023-05-11T17:14:39.689Z,5.40
2023-05-11T17:17:08.388Z,11.00
2023-05-11T17:19:35.604Z,7.10
2023-05-11T17:22:02.573Z,6.50
2023-05-11T17:24:29.566Z,4.90
2023-05-11T17:26:56.878Z,6.00
2023-05-11T17:29:23.924Z,5.80
2023-05-11T17:31:52.217Z,7.60
2023-05-11T17:34:21.478Z,7.10
2023-05-11T17:36:50.194Z,20.00
2023-05-11T17:39:20.306Z,26.30
2023-05-11T17:41:47.765Z,30.10
2023-05-11T17:44:14.816Z,23.00
2023-05-11T17:46:42.097Z,20.30
2023-05-11T17:49:10.428Z,19.00
2023-05-11T17:51:37.616Z,19.10
2023-05-11T17:54:04.630Z,21.70
2023-05-11T17:56:32.360Z,17.60
2023-05-11T17:58:59.716Z,17.20
2023-05-11T18:01:27.863Z,16.70
2023-05-11T18:03:55.125Z,16.20
2023-05-11T18:06:22.371Z,15.90
2023-05-11T18:08:49.680Z,17.20
2023-05-11T18:11:18.235Z,17.30
2023-05-11T18:13:46.264Z,18.20
2023-05-11T18:16:13.480Z,13.70
2023-05-11T18:18:42.708Z,14.00
2023-05-11T18:21:11.047Z,17.30
2023-05-11T18:23:38.533Z,12.60
2023-05-11T18:26:06.494Z,16.00
2023-05-11T18:28:33.557Z,16.60
2023-05-11T18:31:01.542Z,17.80
2023-05-11T18:33:28.771Z,24.70
2023-05-11T18:35:55.915Z,21.60
2023-05-11T18:38:23.177Z,15.30
2023-05-11T18:40:51.475Z,19.30
2023-05-11T18:43:18.517Z,22.20
2023-05-11T18:45:46.522Z,18.30
2023-05-11T18:48:15.764Z,14.30
2023-05-11T18:50:43.118Z,12.60
2023-05-11T18:53:10.166Z,16.50
2023-05-11T18:55:51.926Z,12.20
2023-05-11T18:58:20.935Z,14.10
2023-05-11T19:00:48.961Z,10.10
2023-05-11T19:03:17.604Z,17.40
2023-05-11T19:05:45.028Z,49.80
2023-05-11T19:08:12.013Z,19.20
2023-05-11T19:10:40.610Z,12.60
2023-05-11T19:13:07.951Z,12.00
2023-05-11T19:15:35.510Z,11.60
2023-05-11T19:18:03.106Z,10.40
2023-05-11T19:20:30.212Z,11.90
2023-05-11T19:22:57.383Z,21.10
2023-05-11T19:25:24.420Z,23.80
2023-05-11T19:27:54.850Z,23.80
2023-05-11T19:30:22.129Z,20.10
2023-05-11T19:32:49.604Z,20.40
2023-05-11T19:35:18.037Z,19.70
2023-05-11T19:37:48.389Z,18.00
2023-05-11T19:42:46.668Z,14.00
2023-05-11T19:45:14.744Z,13.00
2023-05-11T19:47:41.891Z,12.70
2023-05-11T19:50:09.554Z,9.30
2023-05-11T19:52:37.015Z,9.90
2023-05-11T19:55:04.835Z,11.90
2023-05-11T19:57:37.445Z,14.00
2023-05-11T20:00:06.305Z,12.40
2023-05-11T20:02:33.661Z,9.30
2023-05-11T20:05:00.834Z,11.20
2023-05-11T20:07:28.026Z,8.00
2023-05-11T20:09:55.297Z,10.30
2023-05-11T20:12:22.557Z,7.20
2023-05-11T20:14:50.034Z,6.40
2023-05-11T20:17:16.981Z,8.10
2023-05-11T20:19:44.135Z,9.90
2023-05-11T20:22:11.484Z,8.80
2023-05-11T20:24:39.010Z,6.90
2023-05-11T20:27:09.718Z,7.50
2023-05-11T20:29:36.903Z,8.20
2023-05-11T20:32:04.368Z,10.60
2023-05-11T20:34:31.908Z,11.70
2023-05-11T20:36:59.050Z,13.90
2023-05-11T20:39:26.311Z,16.20
2023-05-11T20:41:53.317Z,18.60
2023-05-11T20:44:20.560Z,21.70
2023-05-11T20:46:47.747Z,18.50
2023-05-11T20:49:22.257Z,15.50
2023-05-11T20:51:55.228Z,16.30
2023-05-11T20:54:23.093Z,12.30
2023-05-11T20:56:50.509Z,15.60
2023-05-11T21:01:47.769Z,15.60
2023-05-11T21:04:14.801Z,17.50
2023-05-11T21:06:41.859Z,16.50
2023-05-11T21:09:09.422Z,13.80
2023-05-11T21:11:36.687Z,17.10
2023-05-11T21:14:03.822Z,13.60
2023-05-11T21:16:30.846Z,19.10
2023-05-11T21:18:58.020Z,16.60
2023-05-11T21:21:25.243Z,22.40
2023-05-11T21:23:52.190Z,32.90
2023-05-11T21:26:19.336Z,19.00
2023-05-11T21:28:46.356Z,21.20
2023-05-11T21:31:13.381Z,22.70
2023-05-11T21:33:40.438Z,17.70
2023-05-11T21:36:08.830Z,14.40
2023-05-11T21:38:35.965Z,18.50
2023-05-11T21:41:03.049Z,18.30
2023-05-11T21:43:30.664Z,18.60
2023-05-11T21:45:57.746Z,17.10
2023-05-11T21:48:24.809Z,13.80
2023-05-11T21:50:53.849Z,15.30
2023-05-11T21:53:21.570Z,13.20
2023-05-11T21:55:49.704Z,13.40
2023-05-11T21:58:16.956Z,15.80
2023-05-11T22:00:46.970Z,14.80
2023-05-11T22:03:14.166Z,13.50
2023-05-11T22:05:41.374Z,14.20
2023-05-11T22:08:14.973Z,15.10
2023-05-11T22:10:43.362Z,14.60
2023-05-11T22:13:10.720Z,14.10
2023-05-11T22:15:37.830Z,17.60
2023-05-11T22:18:05.274Z,16.80
2023-05-11T22:20:32.455Z,15.20
2023-05-11T22:22:59.716Z,14.40
2023-05-11T22:25:26.842Z,15.70
2023-05-11T22:27:53.983Z,12.50
2023-05-11T22:30:21.517Z,15.10
2023-05-11T22:32:49.065Z,19.20
2023-05-11T22:35:16.688Z,13.30
2023-05-11T22:37:43.759Z,14.20
2023-05-11T22:40:11.431Z,12.50
2023-05-11T22:42:38.459Z,14.20
2023-05-11T22:45:06.316Z,13.10
2023-05-11T22:47:33.450Z,11.60
2023-05-11T22:50:00.743Z,13.20
2023-05-11T22:52:27.760Z,11.80
2023-05-11T22:54:55.316Z,14.20
2023-05-11T22:57:24.231Z,15.60
2023-05-11T22:59:51.252Z,13.50
2023-05-11T23:02:18.255Z,14.30
2023-05-11T23:04:50.503Z,15.20
2023-05-11T23:07:18.118Z,14.50
2023-05-11T23:09:45.298Z,14.50
2023-05-11T23:12:13.035Z,12.90
2023-05-11T23:14:39.939Z,16.00
2023-05-11T23:17:06.964Z,12.70
2023-05-11T23:19:34.040Z,17.30
2023-05-11T23:22:01.535Z,14.50
2023-05-11T23:24:29.107Z,15.40
2023-05-11T23:26:56.145Z,15.60
2023-05-11T23:29:23.215Z,13.40
2023-05-11T23:31:51.223Z,15.40
2023-05-11T23:34:18.709Z,12.80
2023-05-11T23:36:46.017Z,14.10
2023-05-11T23:39:13.179Z,15.40
2023-05-11T23:41:40.312Z,18.00
2023-05-11T23:44:07.490Z,12.00
2023-05-11T23:46:34.650Z,13.20
2023-05-11T23:49:02.149Z,15.60
2023-05-11T23:51:29.089Z,12.90
2023-05-11T23:53:56.132Z,13.70
2023-05-11T23:56:23.141Z,11.70
2023-05-11T23:58:50.868Z,12.50
